sensor_id;sensor_type;location;lat;lon;timestamp;P1;durP1;ratioP1;P2;durP2;ratioP2
27424;SDS011;15244;49.088;11.886;2023-02-13T00:04:07;28.98;;;19.65;;
27424;SDS011;15244;49.088;11.886;2023-02-13T00:09:09;23.23;;;16.30;;
27424;SDS011;15244;49.088;11.886;2023-02-13T00:14:11;24.25;;;17.55;;
27424;SDS011;15244;49.088;11.886;2023-02-13T00:19:13;25.50;;;18.60;;
27424;SDS011;15244;49.088;11.886;2023-02-13T00:24:19;25.25;;;18.10;;
27424;SDS011;15244;49.088;11.886;2023-02-13T00:29:21;24.45;;;17.73;;
27424;SDS011;15244;49.088;11.886;2023-02-13T00:34:26;23.73;;;17.15;;
27424;SDS011;15244;49.088;11.886;2023-02-13T00:39:30;21.58;;;17.60;;
27424;SDS011;15244;49.088;11.886;2023-02-13T00:44:34;24.55;;;17.67;;
27424;SDS011;15244;49.088;11.886;2023-02-13T00:49:36;25.98;;;18.40;;
27424;SDS011;15244;49.088;11.886;2023-02-13T00:54:37;24.23;;;17.83;;
27424;SDS011;15244;49.088;11.886;2023-02-13T00:59:39;21.13;;;16.20;;
27424;SDS011;15244;49.088;11.886;2023-02-13T01:04:44;22.05;;;16.85;;
27424;SDS011;15244;49.088;11.886;2023-02-13T01:09:48;23.02;;;17.17;;
27424;SDS011;15244;49.088;11.886;2023-02-13T01:14:52;22.90;;;17.85;;
27424;SDS011;15244;49.088;11.886;2023-02-13T01:19:56;23.40;;;17.48;;
27424;SDS011;15244;49.088;11.886;2023-02-13T01:24:58;21.95;;;16.60;;
27424;SDS011;15244;49.088;11.886;2023-02-13T01:30:07;23.40;;;17.85;;
27424;SDS011;15244;49.088;11.886;2023-02-13T01:35:16;24.40;;;17.80;;
27424;SDS011;15244;49.088;11.886;2023-02-13T01:40:20;21.30;;;16.75;;
27424;SDS011;15244;49.088;11.886;2023-02-13T01:45:28;21.93;;;17.47;;
27424;SDS011;15244;49.088;11.886;2023-02-13T01:55:44;24.80;;;18.25;;
27424;SDS011;15244;49.088;11.886;2023-02-13T02:00:50;22.17;;;16.58;;
27424;SDS011;15244;49.088;11.886;2023-02-13T02:05:52;24.00;;;17.80;;
27424;SDS011;15244;49.088;11.886;2023-02-13T02:10:59;25.15;;;17.70;;
27424;SDS011;15244;49.088;11.886;2023-02-13T02:16:07;25.33;;;18.40;;
27424;SDS011;15244;49.088;11.886;2023-02-13T02:26:17;19.02;;;15.45;;
27424;SDS011;15244;49.088;11.886;2023-02-13T02:31:51;19.73;;;16.02;;
27424;SDS011;15244;49.088;11.886;2023-02-13T02:37:12;16.08;;;12.13;;
27424;SDS011;15244;49.088;11.886;2023-02-13T02:42:27;17.80;;;14.00;;
27424;SDS011;15244;49.088;11.886;2023-02-13T02:47:43;24.90;;;18.25;;
27424;SDS011;15244;49.088;11.886;2023-02-13T02:53:30;26.02;;;18.02;;
27424;SDS011;15244;49.088;11.886;2023-02-13T03:04:02;48.58;;;32.92;;
27424;SDS011;15244;49.088;11.886;2023-02-13T03:09:31;33.38;;;24.25;;
27424;SDS011;15244;49.088;11.886;2023-02-13T03:14:59;19.17;;;15.23;;
27424;SDS011;15244;49.088;11.886;2023-02-13T03:20:11;17.38;;;13.70;;
27424;SDS011;15244;49.088;11.886;2023-02-13T03:25:48;18.73;;;14.07;;
27424;SDS011;15244;49.088;11.886;2023-02-13T03:36:24;22.33;;;17.02;;
27424;SDS011;15244;49.088;11.886;2023-02-13T03:41:53;23.23;;;16.48;;
27424;SDS011;15244;49.088;11.886;2023-02-13T03:46:59;24.33;;;18.17;;
27424;SDS011;15244;49.088;11.886;2023-02-13T03:52:09;23.98;;;17.55;;
27424;SDS011;15244;49.088;11.886;2023-02-13T03:57:19;25.38;;;17.63;;
27424;SDS011;15244;49.088;11.886;2023-02-13T04:02:45;21.80;;;15.52;;
27424;SDS011;15244;49.088;11.886;2023-02-13T04:07:52;22.80;;;15.98;;
27424;SDS011;15244;49.088;11.886;2023-02-13T04:18:17;20.88;;;15.40;;
27424;SDS011;15244;49.088;11.886;2023-02-13T04:23:25;21.88;;;14.93;;
27424;SDS011;15244;49.088;11.886;2023-02-13T04:28:27;24.05;;;16.90;;
27424;SDS011;15244;49.088;11.886;2023-02-13T04:33:37;22.55;;;16.23;;
27424;SDS011;15244;49.088;11.886;2023-02-13T04:38:41;27.30;;;16.30;;
27424;SDS011;15244;49.088;11.886;2023-02-13T04:43:46;22.40;;;15.63;;
27424;SDS011;15244;49.088;11.886;2023-02-13T04:48:49;24.88;;;17.70;;
27424;SDS011;15244;49.088;11.886;2023-02-13T04:53:55;21.17;;;15.73;;
27424;SDS011;15244;49.088;11.886;2023-02-13T04:59:02;16.92;;;13.48;;
27424;SDS011;15244;49.088;11.886;2023-02-13T05:04:03;17.15;;;14.27;;
27424;SDS011;15244;49.088;11.886;2023-02-13T05:09:05;18.45;;;14.02;;
27424;SDS011;15244;49.088;11.886;2023-02-13T05:14:12;19.90;;;15.32;;
27424;SDS011;15244;49.088;11.886;2023-02-13T05:19:14;20.85;;;14.45;;
27424;SDS011;15244;49.088;11.886;2023-02-13T05:24:20;21.75;;;16.15;;
27424;SDS011;15244;49.088;11.886;2023-02-13T05:29:24;25.08;;;17.02;;
27424;SDS011;15244;49.088;11.886;2023-02-13T05:34:35;19.88;;;14.52;;
27424;SDS011;15244;49.088;11.886;2023-02-13T05:39:41;24.25;;;15.65;;
27424;SDS011;15244;49.088;11.886;2023-02-13T05:44:43;18.27;;;14.55;;
27424;SDS011;15244;49.088;11.886;2023-02-13T05:49:47;16.67;;;13.27;;
27424;SDS011;15244;49.088;11.886;2023-02-13T05:54:52;19.42;;;14.55;;
27424;SDS011;15244;49.088;11.886;2023-02-13T05:59:53;24.30;;;15.05;;
27424;SDS011;15244;49.088;11.886;2023-02-13T06:04:59;19.20;;;13.77;;
27424;SDS011;15244;49.088;11.886;2023-02-13T06:10:04;15.90;;;12.93;;
27424;SDS011;15244;49.088;11.886;2023-02-13T06:15:07;21.55;;;15.57;;
27424;SDS011;15244;49.088;11.886;2023-02-13T06:20:09;15.90;;;13.32;;
27424;SDS011;15244;49.088;11.886;2023-02-13T06:25:13;20.42;;;14.77;;
27424;SDS011;15244;49.088;11.886;2023-02-13T06:30:17;27.42;;;17.42;;
27424;SDS011;15244;49.088;11.886;2023-02-13T06:35:19;22.17;;;15.93;;
27424;SDS011;15244;49.088;11.886;2023-02-13T06:40:21;28.33;;;18.58;;
27424;SDS011;15244;49.088;11.886;2023-02-13T06:45:26;32.35;;;20.50;;
27424;SDS011;15244;49.088;11.886;2023-02-13T06:50:28;32.22;;;20.73;;
27424;SDS011;15244;49.088;11.886;2023-02-13T06:55:29;26.02;;;16.58;;
27424;SDS011;15244;49.088;11.886;2023-02-13T07:00:31;16.30;;;13.52;;
27424;SDS011;15244;49.088;11.886;2023-02-13T07:05:37;17.13;;;13.77;;
27424;SDS011;15244;49.088;11.886;2023-02-13T07:10:41;25.38;;;17.08;;
27424;SDS011;15244;49.088;11.886;2023-02-13T07:15:43;23.27;;;17.15;;
27424;SDS011;15244;49.088;11.886;2023-02-13T07:20:45;29.75;;;20.00;;
27424;SDS011;15244;49.088;11.886;2023-02-13T07:25:47;31.70;;;20.05;;
27424;SDS011;15244;49.088;11.886;2023-02-13T07:30:54;31.60;;;20.73;;
27424;SDS011;15244;49.088;11.886;2023-02-13T07:35:56;30.75;;;20.67;;
27424;SDS011;15244;49.088;11.886;2023-02-13T07:41:06;25.70;;;17.55;;
27424;SDS011;15244;49.088;11.886;2023-02-13T07:46:09;19.58;;;14.20;;
27424;SDS011;15244;49.088;11.886;2023-02-13T07:51:13;15.93;;;12.70;;
27424;SDS011;15244;49.088;11.886;2023-02-13T07:56:14;16.33;;;13.23;;
27424;SDS011;15244;49.088;11.886;2023-02-13T08:01:18;27.27;;;18.20;;
27424;SDS011;15244;49.088;11.886;2023-02-13T08:06:20;29.98;;;19.92;;
27424;SDS011;15244;49.088;11.886;2023-02-13T08:11:29;24.60;;;17.45;;
27424;SDS011;15244;49.088;11.886;2023-02-13T08:16:53;27.27;;;17.52;;
27424;SDS011;15244;49.088;11.886;2023-02-13T08:21:58;19.35;;;15.25;;
27424;SDS011;15244;49.088;11.886;2023-02-13T08:27:01;22.08;;;19.05;;
27424;SDS011;15244;49.088;11.886;2023-02-13T08:32:05;26.90;;;18.95;;
27424;SDS011;15244;49.088;11.886;2023-02-13T08:37:09;28.02;;;18.63;;
27424;SDS011;15244;49.088;11.886;2023-02-13T08:42:10;29.20;;;19.67;;
27424;SDS011;15244;49.088;11.886;2023-02-13T08:47:19;26.63;;;18.77;;
27424;SDS011;15244;49.088;11.886;2023-02-13T08:52:26;28.40;;;17.88;;
27424;SDS011;15244;49.088;11.886;2023-02-13T08:57:32;28.80;;;18.98;;
27424;SDS011;15244;49.088;11.886;2023-02-13T09:02:38;29.10;;;18.67;;
27424;SDS011;15244;49.088;11.886;2023-02-13T09:07:43;27.30;;;18.20;;
27424;SDS011;15244;49.088;11.886;2023-02-13T09:12:50;27.67;;;17.70;;
27424;SDS011;15244;49.088;11.886;2023-02-13T09:17:55;19.88;;;15.27;;
27424;SDS011;15244;49.088;11.886;2023-02-13T09:22:56;15.70;;;13.85;;
27424;SDS011;15244;49.088;11.886;2023-02-13T09:27:58;18.55;;;15.68;;
27424;SDS011;15244;49.088;11.886;2023-02-13T09:33:00;22.95;;;17.00;;
27424;SDS011;15244;49.088;11.886;2023-02-13T09:38:05;22.10;;;16.02;;
27424;SDS011;15244;49.088;11.886;2023-02-13T09:43:12;23.95;;;19.33;;
27424;SDS011;15244;49.088;11.886;2023-02-13T09:48:23;29.15;;;21.73;;
27424;SDS011;15244;49.088;11.886;2023-02-13T09:53:32;26.83;;;18.55;;
27424;SDS011;15244;49.088;11.886;2023-02-13T09:58:42;25.15;;;18.85;;
27424;SDS011;15244;49.088;11.886;2023-02-13T10:04:13;26.75;;;20.13;;
27424;SDS011;15244;49.088;11.886;2023-02-13T10:09:51;29.80;;;20.20;;
27424;SDS011;15244;49.088;11.886;2023-02-13T10:20:09;26.70;;;19.67;;
27424;SDS011;15244;49.088;11.886;2023-02-13T10:25:26;28.05;;;20.58;;
27424;SDS011;15244;49.088;11.886;2023-02-13T10:30:31;28.90;;;20.45;;
27424;SDS011;15244;49.088;11.886;2023-02-13T10:35:41;28.23;;;20.20;;
27424;SDS011;15244;49.088;11.886;2023-02-13T10:52:19;25.75;;;18.02;;
27424;SDS011;15244;49.088;11.886;2023-02-13T11:03:00;22.67;;;17.58;;
27424;SDS011;15244;49.088;11.886;2023-02-13T11:08:02;22.88;;;17.30;;
27424;SDS011;15244;49.088;11.886;2023-02-13T11:18:38;19.35;;;15.75;;
27424;SDS011;15244;49.088;11.886;2023-02-13T11:23:44;21.05;;;15.73;;
27424;SDS011;15244;49.088;11.886;2023-02-13T11:28:53;25.08;;;17.65;;
27424;SDS011;15244;49.088;11.886;2023-02-13T11:39:26;20.90;;;15.25;;
27424;SDS011;15244;49.088;11.886;2023-02-13T11:44:28;20.40;;;15.75;;
27424;SDS011;15244;49.088;11.886;2023-02-13T11:49:35;19.58;;;15.63;;
27424;SDS011;15244;49.088;11.886;2023-02-13T11:54:57;17.50;;;14.38;;
27424;SDS011;15244;49.088;11.886;2023-02-13T12:00:26;16.95;;;13.23;;
27424;SDS011;15244;49.088;11.886;2023-02-13T12:05:31;17.10;;;12.75;;
27424;SDS011;15244;49.088;11.886;2023-02-13T12:10:35;15.52;;;12.55;;
27424;SDS011;15244;49.088;11.886;2023-02-13T12:15:44;18.00;;;12.73;;
27424;SDS011;15244;49.088;11.886;2023-02-13T12:26:08;14.90;;;11.27;;
27424;SDS011;15244;49.088;11.886;2023-02-13T12:31:34;17.98;;;13.00;;
27424;SDS011;15244;49.088;11.886;2023-02-13T12:42:18;20.48;;;13.32;;
27424;SDS011;15244;49.088;11.886;2023-02-13T12:47:22;15.63;;;11.77;;
27424;SDS011;15244;49.088;11.886;2023-02-13T12:52:38;14.33;;;12.13;;
27424;SDS011;15244;49.088;11.886;2023-02-13T13:03:34;14.65;;;11.57;;
27424;SDS011;15244;49.088;11.886;2023-02-13T13:13:53;58.88;;;38.80;;
27424;SDS011;15244;49.088;11.886;2023-02-13T13:24:16;9.75;;;8.73;;
27424;SDS011;15244;49.088;11.886;2023-02-13T13:29:42;7.25;;;6.47;;
27424;SDS011;15244;49.088;11.886;2023-02-13T13:34:49;8.05;;;7.25;;
27424;SDS011;15244;49.088;11.886;2023-02-13T13:39:54;6.47;;;5.88;;
27424;SDS011;15244;49.088;11.886;2023-02-13T13:45:23;11.07;;;8.70;;
27424;SDS011;15244;49.088;11.886;2023-02-13T13:50:31;8.25;;;7.40;;
27424;SDS011;15244;49.088;11.886;2023-02-13T14:06:16;6.97;;;6.38;;
27424;SDS011;15244;49.088;11.886;2023-02-13T14:11:25;6.90;;;6.22;;
27424;SDS011;15244;49.088;11.886;2023-02-13T14:16:35;8.70;;;6.78;;
27424;SDS011;15244;49.088;11.886;2023-02-13T14:21:39;8.25;;;7.28;;
27424;SDS011;15244;49.088;11.886;2023-02-13T14:26:40;8.57;;;7.78;;
27424;SDS011;15244;49.088;11.886;2023-02-13T14:42:22;7.50;;;6.60;;
27424;SDS011;15244;49.088;11.886;2023-02-13T14:47:29;7.82;;;7.13;;
27424;SDS011;15244;49.088;11.886;2023-02-13T14:52:37;9.77;;;8.55;;
27424;SDS011;15244;49.088;11.886;2023-02-13T14:57:48;17.17;;;13.45;;
27424;SDS011;15244;49.088;11.886;2023-02-13T15:03:04;7.43;;;6.72;;
27424;SDS011;15244;49.088;11.886;2023-02-13T15:08:25;7.20;;;6.50;;
27424;SDS011;15244;49.088;11.886;2023-02-13T15:13:32;7.88;;;7.13;;
27424;SDS011;15244;49.088;11.886;2023-02-13T15:18:42;8.25;;;7.38;;
27424;SDS011;15244;49.088;11.886;2023-02-13T15:23:49;8.57;;;7.68;;
27424;SDS011;15244;49.088;11.886;2023-02-13T15:28:59;9.00;;;8.18;;
27424;SDS011;15244;49.088;11.886;2023-02-13T15:34:17;17.33;;;13.43;;
27424;SDS011;15244;49.088;11.886;2023-02-13T15:39:27;11.55;;;10.32;;
27424;SDS011;15244;49.088;11.886;2023-02-13T15:44:33;12.10;;;9.50;;
27424;SDS011;15244;49.088;11.886;2023-02-13T15:49:38;9.18;;;7.63;;
27424;SDS011;15244;49.088;11.886;2023-02-13T15:54:51;7.93;;;7.22;;
27424;SDS011;15244;49.088;11.886;2023-02-13T15:59:54;9.25;;;8.25;;
27424;SDS011;15244;49.088;11.886;2023-02-13T16:04:57;9.82;;;8.82;;
27424;SDS011;15244;49.088;11.886;2023-02-13T16:10:13;10.50;;;9.40;;
27424;SDS011;15244;49.088;11.886;2023-02-13T16:15:40;11.65;;;9.40;;
27424;SDS011;15244;49.088;11.886;2023-02-13T16:20:45;17.35;;;9.85;;
27424;SDS011;15244;49.088;11.886;2023-02-13T16:25:53;11.90;;;9.68;;
27424;SDS011;15244;49.088;11.886;2023-02-13T16:31:06;11.43;;;10.20;;
27424;SDS011;15244;49.088;11.886;2023-02-13T16:36:27;12.43;;;10.20;;
27424;SDS011;15244;49.088;11.886;2023-02-13T16:41:31;14.63;;;10.82;;
27424;SDS011;15244;49.088;11.886;2023-02-13T16:46:46;14.55;;;11.48;;
27424;SDS011;15244;49.088;11.886;2023-02-13T16:51:53;14.82;;;11.95;;
27424;SDS011;15244;49.088;11.886;2023-02-13T16:57:03;14.68;;;10.30;;
27424;SDS011;15244;49.088;11.886;2023-02-13T17:02:23;16.50;;;12.75;;
27424;SDS011;15244;49.088;11.886;2023-02-13T17:07:39;14.07;;;10.20;;
27424;SDS011;15244;49.088;11.886;2023-02-13T17:12:53;11.13;;;9.80;;
27424;SDS011;15244;49.088;11.886;2023-02-13T17:17:59;11.32;;;9.65;;
27424;SDS011;15244;49.088;11.886;2023-02-13T17:23:02;13.77;;;10.95;;
27424;SDS011;15244;49.088;11.886;2023-02-13T17:28:15;11.90;;;10.70;;
27424;SDS011;15244;49.088;11.886;2023-02-13T17:33:20;14.70;;;12.90;;
27424;SDS011;15244;49.088;11.886;2023-02-13T17:38:36;11.23;;;10.03;;
27424;SDS011;15244;49.088;11.886;2023-02-13T17:43:37;10.20;;;8.43;;
27424;SDS011;15244;49.088;11.886;2023-02-13T17:48:39;13.00;;;10.32;;
27424;SDS011;15244;49.088;11.886;2023-02-13T17:53:43;11.45;;;10.05;;
27424;SDS011;15244;49.088;11.886;2023-02-13T17:58:45;12.38;;;11.07;;
27424;SDS011;15244;49.088;11.886;2023-02-13T18:03:50;11.93;;;10.65;;
27424;SDS011;15244;49.088;11.886;2023-02-13T18:08:53;10.32;;;9.35;;
27424;SDS011;15244;49.088;11.886;2023-02-13T18:14:00;11.27;;;10.18;;
27424;SDS011;15244;49.088;11.886;2023-02-13T18:19:05;11.70;;;10.50;;
27424;SDS011;15244;49.088;11.886;2023-02-13T18:24:07;10.40;;;9.35;;
27424;SDS011;15244;49.088;11.886;2023-02-13T18:29:09;14.30;;;11.85;;
27424;SDS011;15244;49.088;11.886;2023-02-13T18:34:15;14.32;;;11.35;;
27424;SDS011;15244;49.088;11.886;2023-02-13T18:39:20;16.65;;;12.35;;
27424;SDS011;15244;49.088;11.886;2023-02-13T18:44:28;13.30;;;10.75;;
27424;SDS011;15244;49.088;11.886;2023-02-13T18:49:32;17.50;;;13.52;;
27424;SDS011;15244;49.088;11.886;2023-02-13T18:54:36;9.75;;;8.68;;
27424;SDS011;15244;49.088;11.886;2023-02-13T18:59:42;17.60;;;13.65;;
27424;SDS011;15244;49.088;11.886;2023-02-13T19:04:46;14.88;;;13.30;;
27424;SDS011;15244;49.088;11.886;2023-02-13T19:09:48;15.60;;;12.55;;
27424;SDS011;15244;49.088;11.886;2023-02-13T19:14:52;13.85;;;11.48;;
27424;SDS011;15244;49.088;11.886;2023-02-13T19:19:57;14.20;;;11.77;;
27424;SDS011;15244;49.088;11.886;2023-02-13T19:25:02;16.83;;;12.70;;
27424;SDS011;15244;49.088;11.886;2023-02-13T19:30:06;21.15;;;15.80;;
27424;SDS011;15244;49.088;11.886;2023-02-13T19:35:09;17.88;;;13.93;;
27424;SDS011;15244;49.088;11.886;2023-02-13T19:40:15;17.45;;;13.40;;
27424;SDS011;15244;49.088;11.886;2023-02-13T19:45:16;18.77;;;14.32;;
27424;SDS011;15244;49.088;11.886;2023-02-13T19:50:18;20.77;;;16.48;;
27424;SDS011;15244;49.088;11.886;2023-02-13T19:55:21;25.45;;;19.00;;
27424;SDS011;15244;49.088;11.886;2023-02-13T20:00:24;30.83;;;21.08;;
27424;SDS011;15244;49.088;11.886;2023-02-13T20:05:26;39.38;;;26.30;;
27424;SDS011;15244;49.088;11.886;2023-02-13T20:10:28;28.85;;;21.73;;
27424;SDS011;15244;49.088;11.886;2023-02-13T20:15:30;30.98;;;21.63;;
27424;SDS011;15244;49.088;11.886;2023-02-13T20:20:33;29.60;;;20.92;;
27424;SDS011;15244;49.088;11.886;2023-02-13T20:25:39;27.58;;;19.60;;
27424;SDS011;15244;49.088;11.886;2023-02-13T20:30:43;39.97;;;26.92;;
27424;SDS011;15244;49.088;11.886;2023-02-13T20:35:46;33.20;;;24.52;;
27424;SDS011;15244;49.088;11.886;2023-02-13T20:40:48;35.33;;;23.30;;
27424;SDS011;15244;49.088;11.886;2023-02-13T20:45:50;31.50;;;22.58;;
27424;SDS011;15244;49.088;11.886;2023-02-13T20:50:58;27.65;;;21.00;;
27424;SDS011;15244;49.088;11.886;2023-02-13T20:56:02;33.13;;;23.23;;
27424;SDS011;15244;49.088;11.886;2023-02-13T21:01:12;34.25;;;23.10;;
27424;SDS011;15244;49.088;11.886;2023-02-13T21:06:15;30.55;;;22.70;;
27424;SDS011;15244;49.088;11.886;2023-02-13T21:11:17;30.73;;;21.80;;
27424;SDS011;15244;49.088;11.886;2023-02-13T21:16:20;32.30;;;22.00;;
27424;SDS011;15244;49.088;11.886;2023-02-13T21:21:28;29.90;;;20.85;;
27424;SDS011;15244;49.088;11.886;2023-02-13T21:26:32;32.72;;;21.35;;
27424;SDS011;15244;49.088;11.886;2023-02-13T21:31:41;30.85;;;20.70;;
27424;SDS011;15244;49.088;11.886;2023-02-13T21:36:45;31.60;;;21.50;;
27424;SDS011;15244;49.088;11.886;2023-02-13T21:41:52;36.33;;;22.40;;
27424;SDS011;15244;49.088;11.886;2023-02-13T21:46:54;46.42;;;30.73;;
27424;SDS011;15244;49.088;11.886;2023-02-13T21:51:55;44.88;;;30.67;;
27424;SDS011;15244;49.088;11.886;2023-02-13T21:56:57;46.85;;;29.20;;
27424;SDS011;15244;49.088;11.886;2023-02-13T22:02:01;50.50;;;27.13;;
27424;SDS011;15244;49.088;11.886;2023-02-13T22:07:04;42.85;;;27.10;;
27424;SDS011;15244;49.088;11.886;2023-02-13T22:12:11;40.55;;;26.63;;
27424;SDS011;15244;49.088;11.886;2023-02-13T22:17:15;35.97;;;24.60;;
27424;SDS011;15244;49.088;11.886;2023-02-13T22:22:17;35.10;;;23.17;;
27424;SDS011;15244;49.088;11.886;2023-02-13T22:27:28;37.30;;;24.17;;
27424;SDS011;15244;49.088;11.886;2023-02-13T22:32:30;30.08;;;20.52;;
27424;SDS011;15244;49.088;11.886;2023-02-13T22:37:31;34.78;;;22.08;;
27424;SDS011;15244;49.088;11.886;2023-02-13T22:42:36;31.50;;;21.70;;
27424;SDS011;15244;49.088;11.886;2023-02-13T22:47:38;42.63;;;23.20;;
27424;SDS011;15244;49.088;11.886;2023-02-13T22:52:44;50.92;;;31.77;;
27424;SDS011;15244;49.088;11.886;2023-02-13T22:57:48;35.40;;;22.27;;
27424;SDS011;15244;49.088;11.886;2023-02-13T23:02:55;42.35;;;25.40;;
27424;SDS011;15244;49.088;11.886;2023-02-13T23:07:57;37.28;;;24.80;;
27424;SDS011;15244;49.088;11.886;2023-02-13T23:13:01;41.30;;;24.83;;
27424;SDS011;15244;49.088;11.886;2023-02-13T23:18:03;35.08;;;22.52;;
27424;SDS011;15244;49.088;11.886;2023-02-13T23:23:16;36.05;;;22.95;;
27424;SDS011;15244;49.088;11.886;2023-02-13T23:28:18;29.52;;;19.73;;
27424;SDS011;15244;49.088;11.886;2023-02-13T23:33:23;34.50;;;21.80;;
27424;SDS011;15244;49.088;11.886;2023-02-13T23:38:25;44.03;;;27.98;;
27424;SDS011;15244;49.088;11.886;2023-02-13T23:43:28;34.63;;;21.83;;
27424;SDS011;15244;49.088;11.886;2023-02-13T23:48:33;62.78;;;37.25;;
27424;SDS011;15244;49.088;11.886;2023-02-13T23:53:36;40.17;;;24.63;;
27424;SDS011;15244;49.088;11.886;2023-02-13T23:58:37;33.22;;;21.90;;
